createdAt,value
2017-03-07T00:00:24.997Z,1002.56
2017-03-07T00:01:36.457Z,1002.54
2017-03-07T00:02:47.899Z,1002.58
2017-03-07T00:03:59.342Z,1002.57
2017-03-07T00:05:10.778Z,1002.54
2017-03-07T00:06:22.215Z,1002.57
2017-03-07T00:07:33.678Z,1002.52
2017-03-07T00:08:45.155Z,1002.62
2017-03-07T00:09:56.592Z,1002.6
2017-03-07T00:11:08.061Z,1002.62
2017-03-07T00:12:19.528Z,1002.65
2017-03-07T00:13:30.962Z,1002.67
2017-03-07T00:14:42.399Z,1002.67
2017-03-07T00:15:53.847Z,1002.68
2017-03-07T00:17:05.358Z,1002.69
2017-03-07T00:18:16.798Z,1002.74
2017-03-07T00:19:28.438Z,1002.77
2017-03-07T00:20:39.894Z,1002.81
2017-03-07T00:21:51.356Z,1002.75
2017-03-07T00:23:02.792Z,1002.84
2017-03-07T00:24:14.239Z,1002.8
2017-03-07T00:25:25.695Z,1002.85
2017-03-07T00:26:37.171Z,1002.85
2017-03-07T00:27:48.616Z,1002.86
2017-03-07T00:29:00.040Z,1002.85
2017-03-07T00:30:11.696Z,1002.86
2017-03-07T00:31:23.324Z,1002.82
2017-03-07T00:32:34.755Z,1002.89
2017-03-07T00:33:46.211Z,1002.92
2017-03-07T00:34:57.850Z,1002.91
2017-03-07T00:36:09.279Z,1002.94
2017-03-07T00:37:20.775Z,1002.93
2017-03-07T00:38:32.215Z,1002.94
2017-03-07T00:39:43.686Z,1002.96
2017-03-07T00:40:55.138Z,1002.96
2017-03-07T00:42:06.571Z,1002.98
2017-03-07T00:43:18.015Z,1003
2017-03-07T00:44:29.461Z,1003
2017-03-07T00:45:40.907Z,1003.05
2017-03-07T00:46:52.563Z,1003.04
2017-03-07T00:48:03.995Z,1003.07
2017-03-07T00:49:15.472Z,1003.06
2017-03-07T00:50:26.905Z,1003.13
2017-03-07T00:51:38.326Z,1003.11
2017-03-07T00:52:49.964Z,1003.11
2017-03-07T00:54:01.605Z,1003.13
2017-03-07T00:55:13.031Z,1003.15
2017-03-07T00:56:24.472Z,1003.14
2017-03-07T00:57:35.913Z,1003.11
2017-03-07T00:58:47.383Z,1003.15
2017-03-07T00:59:58.825Z,1003.15
2017-03-07T01:01:10.275Z,1003.13
2017-03-07T01:02:21.733Z,1003.15
2017-03-07T01:03:33.195Z,1003.16
2017-03-07T01:04:44.622Z,1003.19
2017-03-07T01:05:56.062Z,1003.25
2017-03-07T01:07:07.508Z,1003.24
2017-03-07T01:08:18.935Z,1003.27
2017-03-07T01:09:30.431Z,1003.3
2017-03-07T01:10:41.864Z,1003.28
2017-03-07T01:11:53.320Z,1003.27
2017-03-07T01:13:04.762Z,1003.34
2017-03-07T01:14:16.207Z,1003.28
2017-03-07T01:15:27.852Z,1003.31
2017-03-07T01:16:39.311Z,1003.34
2017-03-07T01:17:50.971Z,1003.34
2017-03-07T01:19:02.413Z,1003.33
2017-03-07T01:20:14.141Z,1003.34
2017-03-07T01:21:25.799Z,1003.35
2017-03-07T01:22:37.222Z,1003.34
2017-03-07T01:23:48.698Z,1003.36
2017-03-07T01:25:00.154Z,1003.34
2017-03-07T01:26:12.045Z,1003.38
2017-03-07T01:27:23.493Z,1003.38
2017-03-07T01:28:34.928Z,1003.38
2017-03-07T01:29:46.572Z,1003.38
2017-03-07T01:30:58.269Z,1003.34
2017-03-07T01:32:09.694Z,1003.4
2017-03-07T01:33:21.340Z,1003.39
2017-03-07T01:34:32.820Z,1003.43
2017-03-07T01:35:44.451Z,1003.4
2017-03-07T01:36:56.092Z,1003.4
2017-03-07T01:38:07.544Z,1003.46
2017-03-07T01:39:18.978Z,1003.48
2017-03-07T01:40:30.632Z,1003.45
2017-03-07T01:41:42.121Z,1003.45
2017-03-07T01:42:53.557Z,1003.49
2017-03-07T01:44:04.992Z,1003.52
2017-03-07T01:45:16.414Z,1003.53
2017-03-07T01:46:27.865Z,1003.57
2017-03-07T01:47:39.568Z,1003.54
2017-03-07T01:48:51.020Z,1003.56
2017-03-07T01:50:02.474Z,1003.53
2017-03-07T01:51:13.918Z,1003.54
2017-03-07T01:52:25.365Z,1003.57
2017-03-07T01:53:36.820Z,1003.61
2017-03-07T01:54:48.263Z,1003.61
2017-03-07T01:55:59.796Z,1003.64
2017-03-07T01:57:11.762Z,1003.68
2017-03-07T01:58:23.233Z,1003.66
2017-03-07T01:59:34.743Z,1003.68
2017-03-07T02:00:46.177Z,1003.71
2017-03-07T02:01:57.825Z,1003.75
2017-03-07T02:03:09.482Z,1003.69
2017-03-07T02:04:20.939Z,1003.67
2017-03-07T02:05:32.395Z,1003.71
2017-03-07T02:06:43.818Z,1003.79
2017-03-07T02:07:55.260Z,1003.81
2017-03-07T02:09:06.737Z,1003.78
2017-03-07T02:10:18.174Z,1003.81
2017-03-07T02:11:29.814Z,1003.8
2017-03-07T02:12:41.254Z,1003.85
2017-03-07T02:13:52.689Z,1003.81
2017-03-07T02:15:04.315Z,1003.81
2017-03-07T02:16:15.742Z,1003.84
2017-03-07T02:17:27.370Z,1003.84
2017-03-07T02:18:38.811Z,1003.85
2017-03-07T02:19:50.308Z,1003.84
2017-03-07T02:21:01.747Z,1003.85
2017-03-07T02:22:13.183Z,1003.84
2017-03-07T02:23:24.826Z,1003.83
2017-03-07T02:24:36.458Z,1003.85
2017-03-07T02:25:47.912Z,1003.86
2017-03-07T02:26:59.756Z,1003.86
2017-03-07T02:28:11.395Z,1003.85
2017-03-07T02:29:22.834Z,1003.9
2017-03-07T02:30:34.275Z,1003.87
2017-03-07T02:31:45.749Z,1003.91
2017-03-07T02:32:57.197Z,1003.96
2017-03-07T02:34:08.643Z,1003.98
2017-03-07T02:35:20.083Z,1004.04
2017-03-07T02:36:31.556Z,1004.01
2017-03-07T02:37:42.994Z,1004
2017-03-07T02:38:54.440Z,1004.02
2017-03-07T02:40:06.083Z,1004.03
2017-03-07T02:41:17.598Z,1004.03
2017-03-07T02:42:29.038Z,1004.01
2017-03-07T02:43:40.682Z,1004.06
2017-03-07T02:44:52.128Z,1004.07
2017-03-07T02:46:03.564Z,1004.05
2017-03-07T02:47:15.019Z,1004.08
2017-03-07T02:48:26.656Z,1004.1
2017-03-07T02:49:38.091Z,1004.1
2017-03-07T02:50:49.749Z,1004.11
2017-03-07T02:52:01.246Z,1004.13
2017-03-07T02:53:12.677Z,1004.13
2017-03-07T02:54:24.121Z,1004.16
2017-03-07T02:55:35.543Z,1004.15
2017-03-07T02:56:46.990Z,1004.17
2017-03-07T02:57:58.906Z,1004.18
2017-03-07T02:59:10.361Z,1004.19
2017-03-07T03:00:21.806Z,1004.19
2017-03-07T03:01:33.252Z,1004.22
2017-03-07T03:02:44.681Z,1004.21
2017-03-07T03:03:56.318Z,1004.26
2017-03-07T03:05:07.756Z,1004.25
2017-03-07T03:06:19.178Z,1004.3
2017-03-07T03:07:30.610Z,1004.31
2017-03-07T03:08:42.071Z,1004.33
2017-03-07T03:09:53.568Z,1004.34
2017-03-07T03:11:05.005Z,1004.32
2017-03-07T03:12:16.447Z,1004.35
2017-03-07T03:13:27.923Z,1004.36
2017-03-07T03:14:39.555Z,1004.38
2017-03-07T03:15:51.391Z,1004.37
2017-03-07T03:17:02.832Z,1004.43
2017-03-07T03:18:14.281Z,1004.47
2017-03-07T03:19:25.969Z,1004.52
2017-03-07T03:20:37.409Z,1004.49
2017-03-07T03:21:48.857Z,1004.49
2017-03-07T03:23:00.285Z,1004.5
2017-03-07T03:24:11.741Z,1004.45
2017-03-07T03:25:23.167Z,1004.49
2017-03-07T03:26:34.598Z,1004.52
2017-03-07T03:27:46.030Z,1004.48
2017-03-07T03:28:57.670Z,1004.52
2017-03-07T03:30:09.161Z,1004.55
2017-03-07T03:31:20.592Z,1004.53
2017-03-07T03:32:32.021Z,1004.56
2017-03-07T03:33:43.469Z,1004.59
2017-03-07T03:34:54.907Z,1004.63
2017-03-07T03:36:06.545Z,1004.64
2017-03-07T03:37:17.990Z,1004.61
2017-03-07T03:38:29.432Z,1004.65
2017-03-07T03:39:40.878Z,1004.67
2017-03-07T03:40:52.527Z,1004.66
2017-03-07T03:42:04.015Z,1004.65
2017-03-07T03:43:15.652Z,1004.63
2017-03-07T03:44:27.087Z,1004.71
2017-03-07T03:45:38.512Z,1004.71
2017-03-07T03:46:49.945Z,1004.74
2017-03-07T03:48:01.599Z,1004.73
2017-03-07T03:49:13.057Z,1004.75
2017-03-07T03:50:24.519Z,1004.78
2017-03-07T03:51:36.004Z,1004.76
2017-03-07T03:52:47.460Z,1004.78
2017-03-07T03:53:58.884Z,1004.81
2017-03-07T03:55:10.352Z,1004.81
2017-03-07T03:56:21.986Z,1004.8
2017-03-07T03:57:33.432Z,1004.82
2017-03-07T03:58:44.855Z,1004.81
2017-03-07T03:59:56.516Z,1004.83
2017-03-07T04:01:07.940Z,1004.83
2017-03-07T04:02:19.661Z,1004.85
2017-03-07T04:03:31.113Z,1004.86
2017-03-07T04:04:42.756Z,1004.9
2017-03-07T04:05:54.217Z,1004.92
2017-03-07T04:07:05.658Z,1004.95
2017-03-07T04:08:17.094Z,1004.95
2017-03-07T04:09:28.513Z,1004.97
2017-03-07T04:10:39.957Z,1004.99
2017-03-07T04:11:51.403Z,1004.99
2017-03-07T04:13:03.045Z,1004.97
2017-03-07T04:14:14.483Z,1005.03
2017-03-07T04:15:26.135Z,1005.01
2017-03-07T04:16:37.598Z,1005.06
2017-03-07T04:17:49.045Z,1005.08
2017-03-07T04:19:00.739Z,1005.1
2017-03-07T04:20:12.379Z,1005.13
2017-03-07T04:21:23.853Z,1005.11
2017-03-07T04:22:35.311Z,1005.12
2017-03-07T04:23:46.765Z,1005.13
2017-03-07T04:24:58.201Z,1005.1
2017-03-07T04:26:09.835Z,1005.12
2017-03-07T04:27:21.269Z,1005.16
2017-03-07T04:28:32.950Z,1005.09
2017-03-07T04:29:44.407Z,1005.15
2017-03-07T04:30:55.840Z,1005.19
2017-03-07T04:32:07.491Z,1005.17
2017-03-07T04:33:18.948Z,1005.24
2017-03-07T04:34:30.389Z,1005.23
2017-03-07T04:35:41.817Z,1005.24
2017-03-07T04:36:53.252Z,1005.25
2017-03-07T04:38:04.697Z,1005.25
2017-03-07T04:39:16.574Z,1005.28
2017-03-07T04:40:28.199Z,1005.29
2017-03-07T04:41:39.644Z,1005.29
2017-03-07T04:42:51.297Z,1005.3
2017-03-07T04:44:02.750Z,1005.32
2017-03-07T04:45:14.221Z,1005.34
2017-03-07T04:46:25.658Z,1005.3
2017-03-07T04:47:37.304Z,1005.33
2017-03-07T04:48:48.721Z,1005.32
2017-03-07T04:50:00.152Z,1005.34
2017-03-07T04:51:11.578Z,1005.38
2017-03-07T04:52:23.226Z,1005.39
2017-03-07T04:53:34.870Z,1005.36
2017-03-07T04:54:46.495Z,1005.36
2017-03-07T04:55:57.927Z,1005.42
2017-03-07T04:57:09.435Z,1005.39
2017-03-07T04:58:20.885Z,1005.41
2017-03-07T04:59:32.319Z,1005.44
2017-03-07T05:00:43.743Z,1005.45
2017-03-07T05:01:55.183Z,1005.49
2017-03-07T05:03:06.850Z,1005.47
2017-03-07T05:04:18.297Z,1005.45
2017-03-07T05:05:29.964Z,1005.44
2017-03-07T05:06:41.445Z,1005.46
2017-03-07T05:07:52.899Z,1005.45
2017-03-07T05:09:04.327Z,1005.46
2017-03-07T05:10:15.755Z,1005.45
2017-03-07T05:11:27.182Z,1005.48
2017-03-07T05:12:38.628Z,1005.5
2017-03-07T05:13:50.075Z,1005.48
2017-03-07T05:15:01.500Z,1005.51
2017-03-07T05:16:12.951Z,1005.52
2017-03-07T05:17:24.461Z,1005.52
2017-03-07T05:18:35.909Z,1005.52
2017-03-07T05:19:47.760Z,1005.58
2017-03-07T05:20:59.194Z,1005.57
2017-03-07T05:22:10.628Z,1005.56
2017-03-07T05:23:22.056Z,1005.57
2017-03-07T05:24:33.708Z,1005.58
2017-03-07T05:25:45.162Z,1005.61
2017-03-07T05:26:56.589Z,1005.63
2017-03-07T05:28:08.023Z,1005.64
2017-03-07T05:29:19.507Z,1005.66
2017-03-07T05:30:30.974Z,1005.65
2017-03-07T05:31:42.433Z,1005.7
2017-03-07T05:32:53.875Z,1005.7
2017-03-07T05:34:05.717Z,1005.74
2017-03-07T05:35:17.167Z,1005.74
2017-03-07T05:36:28.599Z,1005.76
2017-03-07T05:37:40.088Z,1005.79
2017-03-07T05:38:51.781Z,1005.8
2017-03-07T05:40:03.240Z,1005.81
2017-03-07T05:41:14.669Z,1005.81
2017-03-07T05:42:26.110Z,1005.79
2017-03-07T05:43:37.755Z,1005.8
2017-03-07T05:44:49.197Z,1005.78
2017-03-07T05:46:00.634Z,1005.79
2017-03-07T05:47:12.088Z,1005.83
2017-03-07T05:48:23.524Z,1005.85
2017-03-07T05:49:35.211Z,1005.84
2017-03-07T05:50:46.640Z,1005.9
2017-03-07T05:51:58.074Z,1005.88
2017-03-07T05:53:09.927Z,1005.89
2017-03-07T05:54:21.359Z,1005.9
2017-03-07T05:55:32.800Z,1005.91
2017-03-07T05:56:44.248Z,1005.93
2017-03-07T05:57:55.898Z,1005.94
2017-03-07T05:59:07.331Z,1005.97
2017-03-07T06:00:18.755Z,1005.96
2017-03-07T06:01:30.191Z,1006
2017-03-07T06:02:41.653Z,1006.02
2017-03-07T06:03:53.105Z,1006.02
2017-03-07T06:05:04.543Z,1006.04
2017-03-07T06:06:16.029Z,1006.08
2017-03-07T06:07:27.672Z,1006.1
2017-03-07T06:08:39.112Z,1006.11
2017-03-07T06:09:50.775Z,1006.2
2017-03-07T06:11:02.227Z,1006.19
2017-03-07T06:12:13.669Z,1006.21
2017-03-07T06:13:25.117Z,1006.25
2017-03-07T06:14:36.565Z,1006.24
2017-03-07T06:15:48.008Z,1006.29
2017-03-07T06:16:59.490Z,1006.26
2017-03-07T06:18:10.930Z,1006.28
2017-03-07T06:19:22.393Z,1006.33
2017-03-07T06:20:33.810Z,1006.32
2017-03-07T06:21:45.432Z,1006.32
2017-03-07T06:22:56.866Z,1006.34
2017-03-07T06:24:08.318Z,1006.39
2017-03-07T06:25:19.753Z,1006.4
2017-03-07T06:26:31.195Z,1006.41
2017-03-07T06:27:42.670Z,1006.39
2017-03-07T06:28:54.115Z,1006.43
2017-03-07T06:30:05.549Z,1006.42
2017-03-07T06:31:17.176Z,1006.48
2017-03-07T06:32:28.646Z,1006.48
2017-03-07T06:33:40.073Z,1006.54
2017-03-07T06:34:51.489Z,1006.5
2017-03-07T06:36:02.925Z,1006.56
2017-03-07T06:37:14.361Z,1006.58
2017-03-07T06:38:25.784Z,1006.56
2017-03-07T06:39:37.486Z,1006.63
2017-03-07T06:40:48.923Z,1006.61
2017-03-07T06:42:00.554Z,1006.61
2017-03-07T06:43:12.423Z,1006.66
2017-03-07T06:44:24.068Z,1006.65
2017-03-07T06:45:35.526Z,1006.64
2017-03-07T06:46:46.973Z,1006.69
2017-03-07T06:47:58.431Z,1006.72
2017-03-07T06:49:10.136Z,1006.77
2017-03-07T06:50:21.569Z,1006.71
2017-03-07T06:51:33.012Z,1006.78
2017-03-07T06:52:44.449Z,1006.8
2017-03-07T06:53:56.081Z,1006.79
2017-03-07T06:55:07.519Z,1006.79
2017-03-07T06:56:18.940Z,1006.83
2017-03-07T06:57:30.388Z,1006.88
2017-03-07T06:58:42.015Z,1006.87
2017-03-07T06:59:53.489Z,1006.87
2017-03-07T07:01:04.932Z,1006.9
2017-03-07T07:02:16.390Z,1006.91
2017-03-07T07:03:27.815Z,1006.92
2017-03-07T07:04:39.249Z,1006.94
2017-03-07T07:05:50.893Z,1006.97
2017-03-07T07:07:02.359Z,1006.97
2017-03-07T07:08:13.805Z,1006.97
2017-03-07T07:09:25.245Z,1006.96
2017-03-07T07:10:36.722Z,1006.96
2017-03-07T07:11:48.254Z,1006.92
2017-03-07T07:12:59.693Z,1006.96
2017-03-07T07:14:11.136Z,1006.96
2017-03-07T07:15:22.589Z,1006.98
2017-03-07T07:16:34.018Z,1007.01
2017-03-07T07:17:45.449Z,1007.02
2017-03-07T07:18:57.077Z,1007.02
2017-03-07T07:20:08.541Z,1007.05
2017-03-07T07:21:20.050Z,1007.08
2017-03-07T07:22:31.681Z,1007.07
2017-03-07T07:23:43.337Z,1007.09
2017-03-07T07:24:54.764Z,1007.13
2017-03-07T07:26:06.423Z,1007.16
2017-03-07T07:27:17.854Z,1007.2
2017-03-07T07:28:29.511Z,1007.2
2017-03-07T07:29:41.157Z,1007.31
2017-03-07T07:30:52.603Z,1007.27
2017-03-07T07:32:04.095Z,1007.29
2017-03-07T07:33:15.553Z,1007.33
2017-03-07T07:34:27.000Z,1007.34
2017-03-07T07:35:38.439Z,1007.31
2017-03-07T07:36:49.873Z,1007.37
2017-03-07T07:38:01.308Z,1007.37
2017-03-07T07:39:12.745Z,1007.39
2017-03-07T07:40:24.174Z,1007.46
2017-03-07T07:41:35.599Z,1007.44
2017-03-07T07:42:47.028Z,1007.43
2017-03-07T07:43:58.493Z,1007.5
2017-03-07T07:45:10.145Z,1007.45
2017-03-07T07:46:21.574Z,1007.47
2017-03-07T07:47:33.224Z,1007.53
2017-03-07T07:48:44.703Z,1007.55
2017-03-07T07:49:56.139Z,1007.57
2017-03-07T07:51:07.586Z,1007.62
2017-03-07T07:52:19.236Z,1007.59
2017-03-07T07:53:30.678Z,1007.61
2017-03-07T07:54:42.351Z,1007.64
2017-03-07T07:55:53.993Z,1007.57
2017-03-07T07:57:05.435Z,1007.61
2017-03-07T07:58:17.093Z,1007.64
2017-03-07T07:59:28.580Z,1007.61
2017-03-07T08:00:39.998Z,1007.64
2017-03-07T08:01:51.661Z,1007.62
2017-03-07T08:03:03.108Z,1007.65
2017-03-07T08:04:14.748Z,1007.66
2017-03-07T08:05:26.388Z,1007.68
2017-03-07T08:06:38.021Z,1007.64
2017-03-07T08:07:49.457Z,1007.7
2017-03-07T08:09:00.901Z,1007.72
2017-03-07T08:10:12.407Z,1007.73
2017-03-07T08:11:24.041Z,1007.78
2017-03-07T08:12:35.481Z,1007.76
2017-03-07T08:13:46.917Z,1007.77
2017-03-07T08:14:58.552Z,1007.83
2017-03-07T08:16:10.190Z,1007.8
2017-03-07T08:17:21.630Z,1007.82
2017-03-07T08:18:33.090Z,1007.86
2017-03-07T08:19:44.509Z,1007.89
2017-03-07T08:20:55.936Z,1007.91
2017-03-07T08:22:07.425Z,1007.91
2017-03-07T08:23:18.896Z,1007.95
2017-03-07T08:24:30.332Z,1007.96
2017-03-07T08:25:41.995Z,1007.99
2017-03-07T08:26:53.431Z,1007.98
2017-03-07T08:28:04.884Z,1008.02
2017-03-07T08:29:16.299Z,1008.03
2017-03-07T08:30:27.774Z,1008.01
2017-03-07T08:31:39.257Z,1008.02
2017-03-07T08:32:50.708Z,1008.03
2017-03-07T08:34:02.151Z,1008.06
2017-03-07T08:35:13.589Z,1008.06
2017-03-07T08:36:25.449Z,1008.04
2017-03-07T08:37:36.896Z,1008.04
2017-03-07T08:38:48.323Z,1008.04
2017-03-07T08:39:59.970Z,1008.08
2017-03-07T08:41:11.420Z,1008.04
2017-03-07T08:42:22.921Z,1008.02
2017-03-07T08:43:34.362Z,1008.03
2017-03-07T08:44:45.828Z,1008.08
2017-03-07T08:45:57.255Z,1008.04
2017-03-07T08:47:08.898Z,1008.1
2017-03-07T08:48:20.334Z,1008.12
2017-03-07T08:49:31.772Z,1008.15
2017-03-07T08:50:43.227Z,1008.16
2017-03-07T08:51:54.660Z,1008.11
2017-03-07T08:53:06.329Z,1008.17
2017-03-07T08:54:17.821Z,1008.17
2017-03-07T08:55:29.285Z,1008.19
2017-03-07T08:56:40.755Z,1008.23
2017-03-07T08:57:52.391Z,1008.25
2017-03-07T08:59:03.809Z,1008.28
2017-03-07T09:00:15.272Z,1008.27
2017-03-07T09:01:26.708Z,1008.28
2017-03-07T09:02:38.159Z,1008.29
2017-03-07T09:03:49.857Z,1008.27
2017-03-07T09:05:01.498Z,1008.3
2017-03-07T09:06:12.957Z,1008.31
2017-03-07T09:07:24.593Z,1008.32
2017-03-07T09:08:36.062Z,1008.27
2017-03-07T09:09:47.484Z,1008.31
2017-03-07T09:10:58.918Z,1008.27
2017-03-07T09:12:10.363Z,1008.32
2017-03-07T09:13:22.007Z,1008.33
2017-03-07T09:14:33.492Z,1008.33
2017-03-07T09:15:45.161Z,1008.36
2017-03-07T09:16:56.628Z,1008.38
2017-03-07T09:18:08.054Z,1008.43
2017-03-07T09:19:19.480Z,1008.46
2017-03-07T09:20:30.940Z,1008.45
2017-03-07T09:21:42.393Z,1008.44
2017-03-07T09:22:54.042Z,1008.46
2017-03-07T09:24:05.503Z,1008.45
2017-03-07T09:25:16.955Z,1008.43
2017-03-07T09:26:28.447Z,1008.44
2017-03-07T09:27:40.075Z,1008.47
2017-03-07T09:28:51.537Z,1008.46
2017-03-07T09:30:02.991Z,1008.47
2017-03-07T09:31:14.425Z,1008.52
2017-03-07T09:32:26.067Z,1008.47
2017-03-07T09:33:37.492Z,1008.52
2017-03-07T09:34:48.933Z,1008.52
2017-03-07T09:36:00.777Z,1008.54
2017-03-07T09:37:12.411Z,1008.5
2017-03-07T09:38:23.854Z,1008.54
2017-03-07T09:39:35.302Z,1008.59
2017-03-07T09:40:46.757Z,1008.58
2017-03-07T09:41:58.392Z,1008.56
2017-03-07T09:43:09.831Z,1008.52
2017-03-07T09:44:21.267Z,1008.55
2017-03-07T09:45:32.719Z,1008.53
2017-03-07T09:46:44.191Z,1008.55
2017-03-07T09:47:55.645Z,1008.55
2017-03-07T09:49:07.075Z,1008.6
2017-03-07T09:50:18.528Z,1008.61
2017-03-07T09:51:29.968Z,1008.65
2017-03-07T09:52:41.460Z,1008.64
2017-03-07T09:53:52.913Z,1008.64
2017-03-07T09:55:04.784Z,1008.64
2017-03-07T09:56:16.435Z,1008.66
2017-03-07T09:57:28.074Z,1008.68
2017-03-07T09:58:39.570Z,1008.65
2017-03-07T09:59:51.001Z,1008.68
2017-03-07T10:01:02.463Z,1008.63
2017-03-07T10:02:13.886Z,1008.64
2017-03-07T10:03:25.321Z,1008.63
2017-03-07T10:04:36.798Z,1008.65
2017-03-07T10:05:48.227Z,1008.62
2017-03-07T10:06:59.661Z,1008.64
2017-03-07T10:08:11.330Z,1008.65
2017-03-07T10:09:22.777Z,1008.67
2017-03-07T10:10:34.224Z,1008.66
2017-03-07T10:11:45.670Z,1008.71
2017-03-07T10:12:57.311Z,1008.72
2017-03-07T10:14:08.801Z,1008.7
2017-03-07T10:15:20.462Z,1008.75
2017-03-07T10:16:31.899Z,1008.74
2017-03-07T10:17:43.327Z,1008.73
2017-03-07T10:18:54.791Z,1008.74
2017-03-07T10:20:06.261Z,1008.77
2017-03-07T10:21:17.693Z,1008.69
2017-03-07T10:22:29.117Z,1008.78
2017-03-07T10:23:40.773Z,1008.77
2017-03-07T10:24:52.467Z,1008.8
2017-03-07T10:26:03.922Z,1008.77
2017-03-07T10:27:15.609Z,1008.81
2017-03-07T10:28:27.052Z,1008.77
2017-03-07T10:29:38.509Z,1008.79
2017-03-07T10:30:49.951Z,1008.8
2017-03-07T10:32:01.391Z,1008.79
2017-03-07T10:33:13.026Z,1008.85
2017-03-07T10:34:24.463Z,1008.83
2017-03-07T10:35:35.892Z,1008.82
2017-03-07T10:36:47.362Z,1008.81
2017-03-07T10:37:58.992Z,1008.83
2017-03-07T10:39:10.424Z,1008.87
2017-03-07T10:40:21.857Z,1008.92
2017-03-07T10:41:33.292Z,1008.93
2017-03-07T10:42:44.725Z,1008.91
2017-03-07T10:43:56.157Z,1008.97
2017-03-07T10:45:08.038Z,1008.98
2017-03-07T10:46:19.751Z,1008.97
2017-03-07T10:47:31.581Z,1008.96
2017-03-07T10:48:43.439Z,1008.97
2017-03-07T10:49:55.280Z,1008.96
2017-03-07T10:51:06.743Z,1008.98
2017-03-07T10:52:18.176Z,1008.96
2017-03-07T10:53:29.611Z,1008.95
2017-03-07T10:54:41.255Z,1008.95
2017-03-07T10:55:52.682Z,1008.96
2017-03-07T10:57:04.609Z,1008.98
2017-03-07T10:58:16.050Z,1008.98
2017-03-07T10:59:27.505Z,1009.03
2017-03-07T11:00:38.947Z,1009.01
2017-03-07T11:01:50.381Z,1009.01
2017-03-07T11:03:01.803Z,1009.05
2017-03-07T11:04:13.448Z,1009.05
2017-03-07T11:05:24.880Z,1009.08
2017-03-07T11:06:36.312Z,1009.1
2017-03-07T11:07:47.766Z,1009.09
2017-03-07T11:08:59.487Z,1009.1
2017-03-07T11:10:10.914Z,1009.1
2017-03-07T11:11:22.351Z,1009.14
2017-03-07T11:12:33.996Z,1009.13
2017-03-07T11:13:45.480Z,1009.16
2017-03-07T11:14:56.939Z,1009.16
2017-03-07T11:16:08.606Z,1009.19
2017-03-07T11:17:20.062Z,1009.16
2017-03-07T11:18:31.544Z,1009.24
2017-03-07T11:19:43.202Z,1009.19
2017-03-07T11:20:54.635Z,1009.25
2017-03-07T11:22:06.294Z,1009.22
2017-03-07T11:23:17.937Z,1009.23
2017-03-07T11:24:29.589Z,1009.21
2017-03-07T11:25:41.042Z,1009.18
2017-03-07T11:26:52.680Z,1009.14
2017-03-07T11:28:04.327Z,1009.13
2017-03-07T11:29:15.817Z,1009.14
2017-03-07T11:30:28.089Z,1009.12
2017-03-07T11:31:39.514Z,1009.03
2017-03-07T11:32:50.962Z,1009.06
2017-03-07T11:34:02.403Z,1009.13
2017-03-07T11:35:13.849Z,1009.15
2017-03-07T11:36:25.294Z,1009.2
2017-03-07T11:37:36.771Z,1009.18
2017-03-07T11:38:48.224Z,1009.21
2017-03-07T11:39:59.880Z,1009.27
2017-03-07T11:41:11.536Z,1009.27
2017-03-07T11:42:23.187Z,1009.26
2017-03-07T11:43:34.643Z,1009.29
2017-03-07T11:44:46.113Z,1009.3
2017-03-07T11:45:57.555Z,1009.37
2017-03-07T11:47:09.057Z,1009.41
2017-03-07T11:48:20.498Z,1009.4
2017-03-07T11:49:31.932Z,1009.38
2017-03-07T11:50:43.577Z,1009.34
2017-03-07T11:51:55.026Z,1009.43
2017-03-07T11:53:06.488Z,1009.48
2017-03-07T11:54:17.910Z,1009.49
2017-03-07T11:55:29.357Z,1009.52
2017-03-07T11:56:40.853Z,1009.48
2017-03-07T11:57:52.289Z,1009.46
2017-03-07T11:59:04.136Z,1009.44
2017-03-07T12:00:15.569Z,1009.44
2017-03-07T12:01:27.226Z,1009.42
2017-03-07T12:02:38.690Z,1009.35
2017-03-07T12:03:50.124Z,1009.38
2017-03-07T12:05:01.551Z,1009.4
2017-03-07T12:06:12.990Z,1009.36
2017-03-07T12:07:24.684Z,1009.35
2017-03-07T12:08:36.117Z,1009.43
2017-03-07T12:09:47.765Z,1009.4
2017-03-07T12:10:59.218Z,1009.41
2017-03-07T12:12:10.651Z,1009.44
2017-03-07T12:13:22.497Z,1009.51
2017-03-07T12:14:33.932Z,1009.49
2017-03-07T12:15:45.371Z,1009.48
2017-03-07T12:16:57.217Z,1009.48
2017-03-07T12:18:08.863Z,1009.48
2017-03-07T12:19:20.341Z,1009.49
2017-03-07T12:20:31.815Z,1009.48
2017-03-07T12:21:43.262Z,1009.55
2017-03-07T12:22:54.906Z,1009.56
2017-03-07T12:24:06.582Z,1009.56
2017-03-07T12:25:18.241Z,1009.58
2017-03-07T12:26:29.707Z,1009.59
2017-03-07T12:27:41.160Z,1009.52
2017-03-07T12:28:52.665Z,1009.52
2017-03-07T12:30:04.331Z,1009.56
2017-03-07T12:31:15.981Z,1009.59
2017-03-07T12:32:27.426Z,1009.59
2017-03-07T12:33:38.882Z,1009.62
2017-03-07T12:34:50.319Z,1009.59
2017-03-07T12:36:01.757Z,1009.6
2017-03-07T12:37:13.608Z,1009.61
2017-03-07T12:38:25.044Z,1009.6
2017-03-07T12:39:36.537Z,1009.6
2017-03-07T12:40:47.987Z,1009.6
2017-03-07T12:41:59.631Z,1009.6
2017-03-07T12:43:11.085Z,1009.65
2017-03-07T12:44:22.744Z,1009.64
2017-03-07T12:45:34.389Z,1009.65
2017-03-07T12:46:45.829Z,1009.67
2017-03-07T12:47:57.258Z,1009.69
2017-03-07T12:49:08.706Z,1009.73
2017-03-07T12:50:20.145Z,1009.74
2017-03-07T12:51:31.637Z,1009.77
2017-03-07T12:52:43.076Z,1009.81
2017-03-07T12:53:54.502Z,1009.82
2017-03-07T12:55:05.935Z,1009.81
2017-03-07T12:56:17.379Z,1009.83
2017-03-07T12:57:29.011Z,1009.82
2017-03-07T12:58:40.649Z,1009.87
2017-03-07T12:59:52.081Z,1009.9
2017-03-07T13:01:03.593Z,1009.88
2017-03-07T13:02:15.244Z,1009.91
2017-03-07T13:03:26.704Z,1009.87
2017-03-07T13:04:38.170Z,1009.88
2017-03-07T13:05:49.625Z,1009.92
2017-03-07T13:07:01.055Z,1009.88
2017-03-07T13:08:12.708Z,1009.84
2017-03-07T13:09:24.143Z,1009.89
2017-03-07T13:12:59.839Z,1009.83
2017-03-07T13:14:11.597Z,1009.86
2017-03-07T13:15:23.427Z,1009.84
2017-03-07T13:16:35.172Z,1009.84
2017-03-07T13:17:46.724Z,1009.84
2017-03-07T13:18:58.304Z,1009.82
2017-03-07T13:20:09.757Z,1009.81
2017-03-07T13:21:21.213Z,1009.81
2017-03-07T13:22:32.657Z,1009.82
2017-03-07T13:23:44.162Z,1009.78
2017-03-07T13:24:55.617Z,1009.78
2017-03-07T13:26:07.078Z,1009.76
2017-03-07T13:27:18.546Z,1009.8
2017-03-07T13:28:29.985Z,1009.76
2017-03-07T13:29:41.457Z,1009.83
2017-03-07T13:30:52.900Z,1009.85
2017-03-07T13:32:04.569Z,1009.84
2017-03-07T13:33:16.064Z,1009.82
2017-03-07T13:34:27.499Z,1009.85
2017-03-07T13:35:39.147Z,1009.85
2017-03-07T13:36:50.778Z,1009.88
2017-03-07T13:38:02.219Z,1009.85
2017-03-07T13:39:13.674Z,1009.88
2017-03-07T13:40:25.127Z,1009.87
2017-03-07T13:41:36.563Z,1009.85
2017-03-07T13:42:48.216Z,1009.87
2017-03-07T13:43:59.721Z,1009.92
2017-03-07T13:45:11.169Z,1009.97
2017-03-07T13:46:22.804Z,1010.05
2017-03-07T13:47:34.249Z,1010.05
2017-03-07T13:48:45.887Z,1010.04
2017-03-07T13:49:57.536Z,1010.12
2017-03-07T13:51:09.378Z,1010.13
2017-03-07T13:52:20.804Z,1010.11
2017-03-07T13:53:32.275Z,1010.15
2017-03-07T13:54:43.716Z,1010.21
2017-03-07T13:55:55.446Z,1010.26
2017-03-07T13:57:06.873Z,1010.26
2017-03-07T13:58:18.313Z,1010.28
2017-03-07T13:59:29.968Z,1010.31
2017-03-07T14:00:41.447Z,1010.27
2017-03-07T14:01:52.883Z,1010.34
2017-03-07T14:03:04.349Z,1010.28
2017-03-07T14:04:15.795Z,1010.32
2017-03-07T14:05:27.488Z,1010.37
2017-03-07T14:06:38.945Z,1010.35
2017-03-07T14:07:50.604Z,1010.35
2017-03-07T14:09:02.052Z,1010.39
2017-03-07T14:10:13.676Z,1010.38
2017-03-07T14:11:25.102Z,1010.39
2017-03-07T14:12:36.953Z,1010.43
2017-03-07T14:13:48.386Z,1010.43
2017-03-07T14:14:59.827Z,1010.41
2017-03-07T14:16:11.316Z,1010.39
2017-03-07T14:17:22.756Z,1010.43
2017-03-07T14:18:34.402Z,1010.39
2017-03-07T14:19:46.037Z,1010.45
2017-03-07T14:20:57.688Z,1010.5
2017-03-07T14:22:09.338Z,1010.51
2017-03-07T14:23:20.818Z,1010.56
2017-03-07T14:24:32.461Z,1010.56
2017-03-07T14:25:43.896Z,1010.52
2017-03-07T14:26:55.330Z,1010.52
2017-03-07T14:28:06.759Z,1010.51
2017-03-07T14:29:18.197Z,1010.55